Time;durP1;ratioP1;P1;durP2;ratioP2;P2;SDS_P1;SDS_P2;PMS_P1;PMS_P2;Temp;Humidity;BMP_temperature;BMP_pressure;BME280_temperature;BME280_humidity;BME280_pressure;Samples;Min_cycle;Max_cycle;Signal;HPM_P1;HPM_P2
2023/12/17 00:01:19;;;;;;;5.27;3.47;;;;;;;;;;5008346;28;20249;-69
2023/12/17 00:03:45;;;;;;;5.93;3.73;;;;;;;;;;5005165;28;20200;-69
2023/12/17 00:06:10;;;;;;;8.95;4.07;;;;;;;;;;5011544;28;20225;-69
2023/12/17 00:08:35;;;;;;;9.30;3.87;;;;;;;;;;5006158;28;20186;-69
2023/12/17 00:11:01;;;;;;;7.88;4.28;;;;;;;;;;5000765;28;20561;-69
2023/12/17 00:13:26;;;;;;;10.37;4.17;;;;;;;;;;4996720;28;20328;-66
2023/12/17 00:15:51;;;;;;;6.90;3.50;;;;;;;;;;4992882;28;20245;-67
2023/12/17 00:18:16;;;;;;;7.57;4.20;;;;;;;;;;4998834;28;20187;-67
2023/12/17 00:20:42;;;;;;;6.20;3.50;;;;;;;;;;5002430;28;20211;-67
2023/12/17 00:23:07;;;;;;;8.67;4.27;;;;;;;;;;5000231;28;20181;-68
2023/12/17 00:25:32;;;;;;;7.53;4.20;;;;;;;;;;5003223;28;20563;-68
2023/12/17 00:27:57;;;;;;;9.87;4.00;;;;;;;;;;5007062;28;20183;-69
2023/12/17 00:30:22;;;;;;;8.97;3.83;;;;;;;;;;4997048;28;20177;-68
2023/12/17 00:32:48;;;;;;;7.03;4.10;;;;;;;;;;4995867;28;20551;-68
2023/12/17 00:35:13;;;;;;;9.37;4.30;;;;;;;;;;5002792;28;20238;-68
2023/12/17 00:37:38;;;;;;;9.97;3.73;;;;;;;;;;5007879;28;20227;-68
2023/12/17 00:40:04;;;;;;;6.83;3.90;;;;;;;;;;5015359;28;20597;-69
2023/12/17 00:42:29;;;;;;;7.18;3.55;;;;;;;;;;5012867;28;20195;-69
2023/12/17 00:44:54;;;;;;;10.30;3.47;;;;;;;;;;5224718;22;20628;-67
2023/12/17 00:47:19;;;;;;;8.33;3.40;;;;;;;;;;4991889;28;20171;-66
2023/12/17 00:49:44;;;;;;;8.07;3.72;;;;;;;;;;4990872;28;20180;-66
2023/12/17 00:52:10;;;;;;;13.75;4.10;;;;;;;;;;4986649;28;20187;-67
2023/12/17 00:54:35;;;;;;;5.43;3.03;;;;;;;;;;4990348;28;20195;-66
2023/12/17 00:57:00;;;;;;;8.60;4.10;;;;;;;;;;4991631;28;20572;-66
2023/12/17 00:59:25;;;;;;;4.90;3.40;;;;;;;;;;4989285;28;20278;-66
2023/12/17 01:01:51;;;;;;;7.00;3.92;;;;;;;;;;4992175;28;20220;-67
2023/12/17 01:04:16;;;;;;;10.13;4.50;;;;;;;;;;4991619;28;20191;-67
2023/12/17 01:06:41;;;;;;;7.53;3.42;;;;;;;;;;4993074;28;20168;-67
2023/12/17 01:09:06;;;;;;;12.52;4.05;;;;;;;;;;4988535;28;20230;-66
2023/12/17 01:11:32;;;;;;;7.40;3.85;;;;;;;;;;4985881;28;20557;-66
2023/12/17 01:13:57;;;;;;;8.10;3.85;;;;;;;;;;4986550;28;20691;-65
2023/12/17 01:16:22;;;;;;;8.85;3.80;;;;;;;;;;4992488;28;20184;-66
2023/12/17 01:18:47;;;;;;;7.97;3.78;;;;;;;;;;4988199;28;20182;-64
2023/12/17 01:21:13;;;;;;;9.80;3.72;;;;;;;;;;4998449;28;20305;-66
2023/12/17 01:23:38;;;;;;;5.72;3.60;;;;;;;;;;4986507;28;20648;-66
2023/12/17 01:26:04;;;;;;;6.55;3.17;;;;;;;;;;4991674;28;20191;-67
2023/12/17 01:28:29;;;;;;;9.33;3.63;;;;;;;;;;4989753;28;20187;-66
2023/12/17 01:30:54;;;;;;;7.67;3.30;;;;;;;;;;4990739;28;20180;-67
2023/12/17 01:33:19;;;;;;;6.78;3.38;;;;;;;;;;4991486;28;20537;-67
2023/12/17 01:35:44;;;;;;;6.57;2.78;;;;;;;;;;4992036;28;20219;-67
2023/12/17 01:38:09;;;;;;;6.15;3.13;;;;;;;;;;4988453;28;20220;-67
2023/12/17 01:40:35;;;;;;;5.45;3.08;;;;;;;;;;4983545;28;20204;-67
2023/12/17 01:43:01;;;;;;;9.33;3.13;;;;;;;;;;4987660;28;20714;-66
2023/12/17 01:45:27;;;;;;;7.80;3.22;;;;;;;;;;4991806;28;20230;-66
2023/12/17 01:47:52;;;;;;;9.38;3.92;;;;;;;;;;4990012;28;20667;-67
2023/12/17 01:50:17;;;;;;;4.90;3.30;;;;;;;;;;4991393;28;20210;-66
2023/12/17 01:52:42;;;;;;;6.10;3.13;;;;;;;;;;4991996;28;20270;-67
2023/12/17 01:55:08;;;;;;;10.00;4.07;;;;;;;;;;4991796;28;20660;-67
2023/12/17 01:57:33;;;;;;;7.07;3.28;;;;;;;;;;4991876;28;20172;-66
2023/12/17 01:59:58;;;;;;;8.80;3.50;;;;;;;;;;4980462;28;20187;-67
2023/12/17 02:02:24;;;;;;;6.18;3.05;;;;;;;;;;4988525;28;20199;-66
2023/12/17 02:04:49;;;;;;;4.43;3.15;;;;;;;;;;4987692;28;20230;-66
2023/12/17 02:07:14;;;;;;;13.93;4.17;;;;;;;;;;4992020;28;20717;-66
2023/12/17 02:09:40;;;;;;;7.85;3.67;;;;;;;;;;4990383;28;20183;-67
2023/12/17 02:12:05;;;;;;;5.85;3.83;;;;;;;;;;4991642;28;20175;-67
2023/12/17 02:14:30;;;;;;;4.78;3.30;;;;;;;;;;4991642;28;20590;-66
2023/12/17 02:16:56;;;;;;;13.70;3.55;;;;;;;;;;4990345;28;20179;-67
2023/12/17 02:19:21;;;;;;;6.37;3.23;;;;;;;;;;4981992;28;20199;-67
2023/12/17 02:21:46;;;;;;;6.43;3.77;;;;;;;;;;4988121;28;20595;-67
2023/12/17 02:24:12;;;;;;;7.05;3.78;;;;;;;;;;4989953;28;20195;-68
2023/12/17 02:26:40;;;;;;;9.40;3.72;;;;;;;;;;4990359;28;20192;-66
2023/12/17 02:29:05;;;;;;;14.25;4.05;;;;;;;;;;4989850;28;20180;-67
2023/12/17 02:31:30;;;;;;;8.35;4.10;;;;;;;;;;4990283;28;20682;-67
2023/12/17 02:33:55;;;;;;;7.45;3.95;;;;;;;;;;4990972;28;20203;-67
2023/12/17 02:36:21;;;;;;;8.77;3.88;;;;;;;;;;4991858;28;20234;-67
2023/12/17 02:38:46;;;;;;;9.38;5.07;;;;;;;;;;4982874;28;20195;-67
2023/12/17 02:41:11;;;;;;;9.68;4.65;;;;;;;;;;4989893;28;20662;-66
2023/12/17 02:43:38;;;;;;;6.50;3.70;;;;;;;;;;4991897;28;20183;-67
2023/12/17 02:46:03;;;;;;;9.35;4.28;;;;;;;;;;4990790;28;20203;-67
2023/12/17 02:48:28;;;;;;;10.95;4.00;;;;;;;;;;4990527;28;20183;-67
2023/12/17 02:50:53;;;;;;;12.95;5.03;;;;;;;;;;4991227;28;20557;-67
2023/12/17 02:53:18;;;;;;;8.15;4.07;;;;;;;;;;4992629;28;20187;-66
2023/12/17 02:55:44;;;;;;;12.15;4.07;;;;;;;;;;4995544;28;20210;-67
2023/12/17 02:58:09;;;;;;;13.30;3.42;;;;;;;;;;4988160;28;20665;-67
2023/12/17 03:00:34;;;;;;;7.03;3.90;;;;;;;;;;4991337;28;20274;-67
2023/12/17 03:02:59;;;;;;;18.10;6.15;;;;;;;;;;4990959;28;20183;-66
2023/12/17 03:05:24;;;;;;;7.95;3.88;;;;;;;;;;4989803;28;20204;-67
2023/12/17 03:07:49;;;;;;;14.75;4.68;;;;;;;;;;4990141;28;20180;-66
2023/12/17 03:10:15;;;;;;;15.10;4.78;;;;;;;;;;4990652;28;20745;-67
2023/12/17 03:12:40;;;;;;;12.98;4.70;;;;;;;;;;4991136;28;20207;-67
2023/12/17 03:15:05;;;;;;;11.80;4.35;;;;;;;;;;4991873;28;20206;-67
2023/12/17 03:17:31;;;;;;;12.82;4.57;;;;;;;;;;4988700;28;20191;-66
2023/12/17 03:19:56;;;;;;;15.90;5.18;;;;;;;;;;4994751;28;20184;-67
2023/12/17 03:22:21;;;;;;;13.40;5.25;;;;;;;;;;5000113;28;20632;-66
2023/12/17 03:24:47;;;;;;;13.23;4.80;;;;;;;;;;5000130;28;20196;-67
2023/12/17 03:27:12;;;;;;;11.68;5.32;;;;;;;;;;4999739;28;20175;-67
2023/12/17 03:29:37;;;;;;;16.50;5.20;;;;;;;;;;4996284;28;20430;-66
2023/12/17 03:32:02;;;;;;;16.25;5.50;;;;;;;;;;4994531;28;20237;-66
2023/12/17 03:34:28;;;;;;;11.93;5.53;;;;;;;;;;4987633;28;20283;-66
2023/12/17 03:36:53;;;;;;;10.43;5.32;;;;;;;;;;4988679;28;20279;-67
2023/12/17 03:39:19;;;;;;;12.07;5.32;;;;;;;;;;4993427;28;20207;-67
2023/12/17 03:41:44;;;;;;;18.10;7.15;;;;;;;;;;4992875;28;20204;-67
2023/12/17 03:44:09;;;;;;;12.63;4.87;;;;;;;;;;4993964;28;20275;-66
2023/12/17 03:46:34;;;;;;;10.67;4.83;;;;;;;;;;4994603;28;20175;-67
2023/12/17 03:49:00;;;;;;;11.60;4.70;;;;;;;;;;4994216;28;20601;-65
2023/12/17 03:51:25;;;;;;;12.13;5.13;;;;;;;;;;4988563;28;20188;-67
2023/12/17 03:53:50;;;;;;;7.32;3.80;;;;;;;;;;4985884;28;20191;-65
2023/12/17 03:56:16;;;;;;;12.68;4.60;;;;;;;;;;4990876;28;20606;-67
2023/12/17 03:58:42;;;;;;;11.07;4.28;;;;;;;;;;4993223;28;20222;-67
2023/12/17 04:01:08;;;;;;;10.57;5.00;;;;;;;;;;4993468;28;20207;-67
2023/12/17 04:03:33;;;;;;;10.13;4.32;;;;;;;;;;4993086;28;20719;-67
2023/12/17 04:05:59;;;;;;;15.90;5.07;;;;;;;;;;4992875;28;20209;-67
2023/12/17 04:08:25;;;;;;;16.93;4.83;;;;;;;;;;4992146;28;20546;-67
2023/12/17 04:10:50;;;;;;;15.17;5.13;;;;;;;;;;4992296;28;20206;-67
2023/12/17 04:13:15;;;;;;;11.47;5.47;;;;;;;;;;5003641;28;20184;-66
2023/12/17 04:15:40;;;;;;;7.87;4.23;;;;;;;;;;4990145;28;20207;-65
2023/12/17 04:18:06;;;;;;;8.10;3.73;;;;;;;;;;4993223;28;20184;-66
2023/12/17 04:20:31;;;;;;;11.47;4.67;;;;;;;;;;4992285;28;20175;-66
2023/12/17 04:22:56;;;;;;;9.73;4.38;;;;;;;;;;4992340;28;20222;-67
2023/12/17 04:25:22;;;;;;;13.30;5.23;;;;;;;;;;4991129;28;20695;-67
2023/12/17 04:27:47;;;;;;;13.27;4.40;;;;;;;;;;4992893;28;20172;-67
2023/12/17 04:30:12;;;;;;;16.27;5.00;;;;;;;;;;4996353;28;20331;-65
2023/12/17 04:32:37;;;;;;;8.03;4.40;;;;;;;;;;4986516;28;20194;-67
2023/12/17 04:35:03;;;;;;;9.63;4.33;;;;;;;;;;4997059;28;20261;-67
2023/12/17 04:37:28;;;;;;;10.48;4.82;;;;;;;;;;4993523;28;20172;-67
2023/12/17 04:39:54;;;;;;;11.43;5.70;;;;;;;;;;4992781;28;20266;-67
2023/12/17 04:42:19;;;;;;;9.77;5.33;;;;;;;;;;4993265;28;20200;-66
2023/12/17 04:44:44;;;;;;;11.23;5.00;;;;;;;;;;4992193;28;20219;-67
2023/12/17 04:47:10;;;;;;;12.60;4.50;;;;;;;;;;4991477;28;20172;-67
2023/12/17 04:49:35;;;;;;;11.20;4.83;;;;;;;;;;4989334;28;20172;-66
2023/12/17 04:52:00;;;;;;;15.33;5.37;;;;;;;;;;4986111;28;20286;-66
2023/12/17 04:54:26;;;;;;;13.87;4.93;;;;;;;;;;4992562;28;20274;-66
2023/12/17 04:56:54;;;;;;;6.97;4.00;;;;;;;;;;4991896;28;20184;-67
2023/12/17 04:59:19;;;;;;;13.30;5.27;;;;;;;;;;4992515;28;20176;-67
2023/12/17 05:01:45;;;;;;;9.17;4.73;;;;;;;;;;4991079;28;20760;-67
2023/12/17 05:04:10;;;;;;;9.43;4.50;;;;;;;;;;4991442;28;20618;-67
2023/12/17 05:06:35;;;;;;;12.47;5.73;;;;;;;;;;4991889;28;20188;-66
2023/12/17 05:09:00;;;;;;;11.00;4.73;;;;;;;;;;4992364;28;20187;-67
2023/12/17 05:11:25;;;;;;;10.70;4.87;;;;;;;;;;4978443;28;20184;-66
2023/12/17 05:13:51;;;;;;;12.37;5.07;;;;;;;;;;4990580;28;20180;-67
2023/12/17 05:16:16;;;;;;;12.63;5.47;;;;;;;;;;4986336;28;20677;-66
2023/12/17 05:18:41;;;;;;;15.33;5.80;;;;;;;;;;4988617;28;20179;-67
2023/12/17 05:21:06;;;;;;;13.73;6.23;;;;;;;;;;4985203;28;20218;-66
2023/12/17 05:23:31;;;;;;;13.57;6.20;;;;;;;;;;4986700;28;20215;-69
2023/12/17 05:25:57;;;;;;;14.93;6.00;;;;;;;;;;4990840;28;20211;-66
2023/12/17 05:28:22;;;;;;;12.83;6.33;;;;;;;;;;4991983;28;20176;-67
2023/12/17 05:30:47;;;;;;;16.27;6.43;;;;;;;;;;4992243;28;20262;-66
2023/12/17 05:33:12;;;;;;;8.30;5.30;;;;;;;;;;4990723;28;20179;-67
2023/12/17 05:35:37;;;;;;;14.97;7.07;;;;;;;;;;4983696;28;20733;-65
2023/12/17 05:38:03;;;;;;;15.77;6.10;;;;;;;;;;4989819;28;20275;-67
2023/12/17 05:40:28;;;;;;;13.27;6.00;;;;;;;;;;4990991;28;21155;-66
2023/12/17 05:42:53;;;;;;;22.33;7.97;;;;;;;;;;4990833;28;20187;-66
2023/12/17 05:45:18;;;;;;;15.87;7.53;;;;;;;;;;4989443;28;20261;-67
2023/12/17 05:47:44;;;;;;;15.90;7.67;;;;;;;;;;4990907;28;20665;-67
2023/12/17 05:50:10;;;;;;;17.77;8.07;;;;;;;;;;4990605;28;20613;-66
2023/12/17 05:52:35;;;;;;;18.20;8.77;;;;;;;;;;4990850;28;20214;-68
2023/12/17 05:55:00;;;;;;;20.10;9.53;;;;;;;;;;4990793;28;20278;-65
2023/12/17 05:57:26;;;;;;;21.93;9.33;;;;;;;;;;4988079;28;20187;-67
2023/12/17 05:59:51;;;;;;;20.17;9.30;;;;;;;;;;4988082;28;20595;-67
2023/12/17 06:02:16;;;;;;;18.00;8.93;;;;;;;;;;4985811;28;20218;-67
2023/12/17 06:04:41;;;;;;;21.13;10.73;;;;;;;;;;4990268;28;20214;-67
2023/12/17 06:07:06;;;;;;;23.23;10.07;;;;;;;;;;4990986;28;20198;-67
2023/12/17 06:09:32;;;;;;;20.53;11.57;;;;;;;;;;4988156;28;20183;-68
2023/12/17 06:12:00;;;;;;;23.77;11.40;;;;;;;;;;4991337;28;20194;-66
2023/12/17 06:14:25;;;;;;;21.63;11.83;;;;;;;;;;4980729;28;20326;-66
2023/12/17 06:16:50;;;;;;;25.83;13.33;;;;;;;;;;4987103;28;20279;-67
2023/12/17 06:19:15;;;;;;;25.50;13.90;;;;;;;;;;4990352;28;20734;-66
2023/12/17 06:21:41;;;;;;;27.37;14.23;;;;;;;;;;4990933;28;20275;-69
2023/12/17 06:24:07;;;;;;;33.63;14.37;;;;;;;;;;4989535;28;20195;-66
2023/12/17 06:26:33;;;;;;;26.73;13.20;;;;;;;;;;4990064;28;20191;-66
2023/12/17 06:28:58;;;;;;;28.20;14.73;;;;;;;;;;4988009;28;20199;-66
2023/12/17 06:31:24;;;;;;;34.20;15.47;;;;;;;;;;4981098;28;20180;-67
2023/12/17 06:33:49;;;;;;;33.47;15.90;;;;;;;;;;4984297;28;20184;-67
2023/12/17 06:36:15;;;;;;;31.50;14.80;;;;;;;;;;4988787;28;20192;-64
2023/12/17 06:38:40;;;;;;;31.87;14.57;;;;;;;;;;4990437;28;20190;-67
2023/12/17 06:41:07;;;;;;;29.67;15.13;;;;;;;;;;4990651;28;20207;-68
2023/12/17 06:43:32;;;;;;;30.33;14.83;;;;;;;;;;4987880;28;20215;-67
2023/12/17 06:45:58;;;;;;;30.10;14.23;;;;;;;;;;5109266;23;20242;-67
2023/12/17 06:48:23;;;;;;;30.83;13.23;;;;;;;;;;5028179;28;20201;-67
2023/12/17 06:50:48;;;;;;;25.63;13.63;;;;;;;;;;5028847;28;20199;-68
2023/12/17 06:53:16;;;;;;;31.13;13.27;;;;;;;;;;5031230;28;20185;-66
2023/12/17 06:55:42;;;;;;;25.37;13.60;;;;;;;;;;5032631;28;20233;-67
2023/12/17 06:58:07;;;;;;;26.90;11.87;;;;;;;;;;5031809;28;20219;-67
2023/12/17 07:00:34;;;;;;;23.67;11.07;;;;;;;;;;5027789;28;20907;-68
2023/12/17 07:02:59;;;;;;;19.87;11.03;;;;;;;;;;5022956;28;20206;-67
2023/12/17 07:05:25;;;;;;;20.97;10.17;;;;;;;;;;5035621;28;20242;-68
2023/12/17 07:07:50;;;;;;;21.23;9.60;;;;;;;;;;5032876;28;20167;-67
2023/12/17 07:10:16;;;;;;;14.60;8.77;;;;;;;;;;5033761;28;20178;-68
2023/12/17 07:12:41;;;;;;;21.17;8.97;;;;;;;;;;5032714;28;20214;-69
2023/12/17 07:15:07;;;;;;;19.27;8.63;;;;;;;;;;5028319;28;20218;-67
2023/12/17 07:17:32;;;;;;;19.77;9.87;;;;;;;;;;5028513;28;20871;-68
2023/12/17 07:19:57;;;;;;;16.73;8.83;;;;;;;;;;5026171;28;20276;-68
2023/12/17 07:22:22;;;;;;;19.03;9.73;;;;;;;;;;5034046;28;20368;-69
2023/12/17 07:24:49;;;;;;;21.13;8.87;;;;;;;;;;5030686;28;20194;-69
2023/12/17 07:27:14;;;;;;;16.47;9.30;;;;;;;;;;5028751;28;20661;-68
2023/12/17 07:29:39;;;;;;;17.40;9.00;;;;;;;;;;5030018;28;20186;-67
2023/12/17 07:32:04;;;;;;;17.43;8.83;;;;;;;;;;5027472;28;20235;-69
2023/12/17 07:34:30;;;;;;;14.90;8.73;;;;;;;;;;5029870;28;20202;-68
2023/12/17 07:36:55;;;;;;;15.20;8.20;;;;;;;;;;5032136;28;20182;-69
2023/12/17 07:39:20;;;;;;;19.63;9.00;;;;;;;;;;5022646;28;20182;-68
2023/12/17 07:41:45;;;;;;;18.97;10.33;;;;;;;;;;5031322;28;20193;-69
2023/12/17 07:44:11;;;;;;;13.33;8.80;;;;;;;;;;5032065;28;20186;-68
2023/12/17 07:46:36;;;;;;;18.07;8.90;;;;;;;;;;5032976;28;20195;-67
2023/12/17 07:49:01;;;;;;;23.33;9.43;;;;;;;;;;5031917;28;20185;-69
2023/12/17 07:51:26;;;;;;;17.03;8.27;;;;;;;;;;5031962;28;20895;-68
2023/12/17 07:53:52;;;;;;;14.00;8.47;;;;;;;;;;5029353;28;20182;-68
2023/12/17 07:56:17;;;;;;;18.87;8.77;;;;;;;;;;5032055;28;20268;-67
2023/12/17 07:58:42;;;;;;;19.30;9.17;;;;;;;;;;5027561;28;20182;-68
2023/12/17 08:01:09;;;;;;;17.27;9.27;;;;;;;;;;5024283;28;20212;-68
2023/12/17 08:03:34;;;;;;;20.87;9.70;;;;;;;;;;5022781;28;20181;-68
2023/12/17 08:06:00;;;;;;;19.73;10.63;;;;;;;;;;5026319;28;20198;-69
2023/12/17 08:08:25;;;;;;;19.20;9.53;;;;;;;;;;5022271;28;20193;-68
2023/12/17 08:10:50;;;;;;;17.07;9.17;;;;;;;;;;5043171;28;20179;-67
2023/12/17 08:13:15;;;;;;;22.67;10.17;;;;;;;;;;5033371;28;20634;-69
2023/12/17 08:15:40;;;;;;;17.43;9.67;;;;;;;;;;5027543;28;20234;-68
2023/12/17 08:18:06;;;;;;;15.10;9.00;;;;;;;;;;5024099;28;20608;-67
2023/12/17 08:20:31;;;;;;;18.07;9.23;;;;;;;;;;5025416;28;20166;-67
2023/12/17 08:22:57;;;;;;;17.57;10.50;;;;;;;;;;5028697;28;20733;-68
2023/12/17 08:25:22;;;;;;;20.90;11.47;;;;;;;;;;5025530;28;20206;-69
2023/12/17 08:27:47;;;;;;;22.43;11.57;;;;;;;;;;5030648;28;20193;-69
2023/12/17 08:30:13;;;;;;;24.20;12.10;;;;;;;;;;5025681;28;20653;-69
2023/12/17 08:32:38;;;;;;;25.20;14.17;;;;;;;;;;5031495;28;20190;-69
2023/12/17 08:35:03;;;;;;;28.70;13.17;;;;;;;;;;5024633;28;20213;-68
2023/12/17 08:37:29;;;;;;;20.97;11.27;;;;;;;;;;5022724;28;20560;-68
2023/12/17 08:39:55;;;;;;;26.17;13.97;;;;;;;;;;5030903;28;20639;-68
2023/12/17 08:42:21;;;;;;;29.10;13.83;;;;;;;;;;5031334;28;20629;-68
2023/12/17 08:44:46;;;;;;;31.07;15.13;;;;;;;;;;5031499;28;20297;-69
2023/12/17 08:47:11;;;;;;;31.33;15.60;;;;;;;;;;5019165;28;20202;-68
2023/12/17 08:49:37;;;;;;;31.73;14.83;;;;;;;;;;5017392;28;20187;-68
2023/12/17 08:52:02;;;;;;;33.27;17.70;;;;;;;;;;5027207;28;20755;-68
2023/12/17 08:54:27;;;;;;;33.93;16.83;;;;;;;;;;5027763;28;20245;-69
2023/12/17 08:56:52;;;;;;;33.27;17.60;;;;;;;;;;5029334;28;20564;-69
2023/12/17 08:59:17;;;;;;;37.27;18.37;;;;;;;;;;5027405;28;20189;-69
2023/12/17 09:01:43;;;;;;;35.20;18.00;;;;;;;;;;5023653;28;20206;-69
2023/12/17 09:04:08;;;;;;;37.90;17.27;;;;;;;;;;5029317;28;20177;-68
2023/12/17 09:06:46;;;;;;;33.63;17.57;;;;;;;;;;5018867;28;20183;-69
2023/12/17 09:09:11;;;;;;;35.23;17.70;;;;;;;;;;5025390;28;20182;-69
2023/12/17 09:11:37;;;;;;;34.97;17.33;;;;;;;;;;5025330;28;20186;-70
2023/12/17 09:14:02;;;;;;;32.57;15.23;;;;;;;;;;5028246;28;20265;-67
2023/12/17 09:16:27;;;;;;;37.93;18.57;;;;;;;;;;5024595;28;20241;-69
2023/12/17 09:18:52;;;;;;;27.67;14.47;;;;;;;;;;5020128;28;20189;-69
2023/12/17 09:21:17;;;;;;;28.37;13.07;;;;;;;;;;5031526;28;20202;-68
2023/12/17 09:23:43;;;;;;;24.70;13.57;;;;;;;;;;5033868;28;20572;-68
2023/12/17 09:26:08;;;;;;;31.80;13.77;;;;;;;;;;5026797;28;20186;-68
2023/12/17 09:28:34;;;;;;;31.77;15.53;;;;;;;;;;5021206;28;20692;-70
2023/12/17 09:31:01;;;;;;;33.33;15.80;;;;;;;;;;5027314;28;20190;-70
2023/12/17 09:33:26;;;;;;;36.00;16.67;;;;;;;;;;5014685;28;20193;-68
2023/12/17 09:35:51;;;;;;;31.63;16.07;;;;;;;;;;5001150;28;20686;-68
2023/12/17 09:38:17;;;;;;;33.20;16.73;;;;;;;;;;5004741;28;20213;-69
2023/12/17 09:40:46;;;;;;;29.30;15.70;;;;;;;;;;5010218;28;20178;-68
2023/12/17 09:43:12;;;;;;;42.10;17.63;;;;;;;;;;5005767;28;20257;-68
2023/12/17 09:45:37;;;;;;;35.23;16.90;;;;;;;;;;5006421;28;21821;-68
2023/12/17 09:48:03;;;;;;;31.37;17.17;;;;;;;;;;5010621;28;20270;-68
2023/12/17 09:50:28;;;;;;;34.47;14.33;;;;;;;;;;5003204;28;20230;-67
2023/12/17 09:52:54;;;;;;;24.93;12.60;;;;;;;;;;5006080;28;20236;-67
2023/12/17 09:55:20;;;;;;;30.17;12.97;;;;;;;;;;5011354;28;20297;-68
2023/12/17 09:57:45;;;;;;;25.70;12.37;;;;;;;;;;5007413;28;20181;-68
2023/12/17 10:00:11;;;;;;;24.43;12.33;;;;;;;;;;5008663;28;20264;-69
2023/12/17 10:02:37;;;;;;;30.77;12.70;;;;;;;;;;5008329;28;20211;-68
2023/12/17 10:05:02;;;;;;;27.77;13.93;;;;;;;;;;5008571;28;20199;-68
2023/12/17 10:07:27;;;;;;;27.80;13.20;;;;;;;;;;5008933;28;20183;-68
2023/12/17 10:09:52;;;;;;;25.57;12.37;;;;;;;;;;5007769;28;20367;-69
2023/12/17 10:12:18;;;;;;;23.67;11.23;;;;;;;;;;5007813;28;20284;-69
2023/12/17 10:14:43;;;;;;;25.17;12.53;;;;;;;;;;5008081;28;20210;-68
2023/12/17 10:17:10;;;;;;;24.93;11.47;;;;;;;;;;5007951;28;20183;-69
2023/12/17 10:19:35;;;;;;;24.37;11.90;;;;;;;;;;5004498;28;20668;-70
2023/12/17 10:22:07;;;;;;;20.37;11.10;;;;;;;;;;5007105;28;20305;-68
2023/12/17 10:24:36;;;;;;;21.37;11.37;;;;;;;;;;5009108;28;20196;-68
2023/12/17 10:27:05;;;;;;;18.93;10.63;;;;;;;;;;5008877;28;21918;-68
2023/12/17 10:29:32;;;;;;;26.03;13.33;;;;;;;;;;5010227;28;20186;-68
2023/12/17 10:31:57;;;;;;;23.97;12.77;;;;;;;;;;5007728;28;20567;-67
2023/12/17 10:34:23;;;;;;;22.67;13.27;;;;;;;;;;5009908;28;20187;-69
2023/12/17 10:36:49;;;;;;;26.97;14.47;;;;;;;;;;5007222;28;20186;-68
2023/12/17 10:39:15;;;;;;;23.17;13.20;;;;;;;;;;5014311;28;20197;-69
2023/12/17 10:41:41;;;;;;;24.50;13.90;;;;;;;;;;5010980;28;20202;-70
2023/12/17 10:44:07;;;;;;;28.37;15.07;;;;;;;;;;5019328;28;20177;-69
2023/12/17 10:46:32;;;;;;;25.07;13.77;;;;;;;;;;5022577;28;20197;-68
2023/12/17 10:48:58;;;;;;;25.97;13.23;;;;;;;;;;5027274;28;20551;-67
2023/12/17 10:51:24;;;;;;;21.20;12.03;;;;;;;;;;5022778;28;20210;-68
2023/12/17 10:53:50;;;;;;;27.50;13.23;;;;;;;;;;5027520;28;20693;-69
2023/12/17 10:56:15;;;;;;;21.97;13.53;;;;;;;;;;5022094;28;20305;-69
2023/12/17 10:58:41;;;;;;;24.83;13.23;;;;;;;;;;5017721;28;20297;-67
2023/12/17 11:01:07;;;;;;;25.97;13.47;;;;;;;;;;5005850;28;20210;-68
2023/12/17 11:03:33;;;;;;;27.37;15.77;;;;;;;;;;5008267;28;20187;-68
2023/12/17 11:05:59;;;;;;;29.03;14.53;;;;;;;;;;5005429;28;20213;-67
2023/12/17 11:08:25;;;;;;;30.47;15.10;;;;;;;;;;5008967;28;20644;-68
2023/12/17 11:10:50;;;;;;;25.50;12.93;;;;;;;;;;5006410;28;20183;-68
2023/12/17 11:13:15;;;;;;;19.97;12.43;;;;;;;;;;5006973;28;20233;-68
2023/12/17 11:15:40;;;;;;;23.47;11.97;;;;;;;;;;5006040;28;20876;-68
2023/12/17 11:18:07;;;;;;;25.30;13.20;;;;;;;;;;5005792;28;20921;-67
2023/12/17 11:20:39;;;;;;;26.63;12.70;;;;;;;;;;5003380;28;20570;-68
2023/12/17 11:23:04;;;;;;;27.67;11.93;;;;;;;;;;5002305;28;20194;-68
2023/12/17 11:25:31;;;;;;;24.57;12.37;;;;;;;;;;5006538;28;21087;-68
2023/12/17 11:27:56;;;;;;;26.83;12.82;;;;;;;;;;5007078;28;20205;-68
2023/12/17 11:30:31;;;;;;;25.00;12.87;;;;;;;;;;5010414;28;20187;-68
2023/12/17 11:32:57;;;;;;;29.58;13.82;;;;;;;;;;5006511;28;21408;-68
2023/12/17 11:35:23;;;;;;;26.35;12.70;;;;;;;;;;5004032;28;20795;-68
2023/12/17 11:37:48;;;;;;;24.27;12.15;;;;;;;;;;5006073;28;21080;-67
2023/12/17 11:40:13;;;;;;;31.38;13.55;;;;;;;;;;5011286;28;20949;-68
2023/12/17 11:42:40;;;;;;;24.25;11.52;;;;;;;;;;5015701;28;20251;-68
2023/12/17 11:45:06;;;;;;;19.65;10.55;;;;;;;;;;5008219;28;20314;-68
2023/12/17 11:47:31;;;;;;;19.83;10.55;;;;;;;;;;5009217;28;20190;-67
2023/12/17 11:49:57;;;;;;;22.17;9.20;;;;;;;;;;5006719;28;20187;-68
2023/12/17 11:52:23;;;;;;;24.23;10.13;;;;;;;;;;5007879;28;20437;-67
2023/12/17 11:54:56;;;;;;;21.27;9.75;;;;;;;;;;5013458;28;20209;-68
2023/12/17 11:57:23;;;;;;;18.80;8.43;;;;;;;;;;5010084;28;20212;-69
2023/12/17 11:59:48;;;;;;;16.63;7.07;;;;;;;;;;5009128;28;20182;-70
2023/12/17 12:02:17;;;;;;;12.13;6.82;;;;;;;;;;5009846;28;20206;-69
2023/12/17 12:04:43;;;;;;;16.77;7.53;;;;;;;;;;5009405;28;20288;-68
2023/12/17 12:07:09;;;;;;;14.88;6.57;;;;;;;;;;5009156;28;20296;-69
2023/12/17 12:09:34;;;;;;;17.83;7.90;;;;;;;;;;5010114;28;20194;-69
2023/12/17 12:11:59;;;;;;;17.00;7.03;;;;;;;;;;5010083;28;20182;-69
2023/12/17 12:14:25;;;;;;;15.35;7.30;;;;;;;;;;5010789;28;20189;-69
2023/12/17 12:16:51;;;;;;;17.27;6.13;;;;;;;;;;5009599;28;20729;-68
2023/12/17 12:19:16;;;;;;;16.55;7.38;;;;;;;;;;5010887;28;20633;-67
2023/12/17 12:21:42;;;;;;;13.50;5.65;;;;;;;;;;5012172;28;21549;-68
2023/12/17 12:24:10;;;;;;;16.25;7.13;;;;;;;;;;5009585;28;20217;-69
2023/12/17 12:26:36;;;;;;;12.65;5.60;;;;;;;;;;5008174;28;20240;-68
2023/12/17 12:29:03;;;;;;;14.90;6.22;;;;;;;;;;5013682;28;20261;-67
2023/12/17 12:31:29;;;;;;;14.32;6.47;;;;;;;;;;5008786;28;20182;-69
2023/12/17 12:33:55;;;;;;;11.55;5.68;;;;;;;;;;5009935;28;20696;-68
2023/12/17 12:36:20;;;;;;;18.20;6.38;;;;;;;;;;5009992;28;20696;-69
2023/12/17 12:38:57;;;;;;;16.42;5.78;;;;;;;;;;5010067;28;20202;-69
2023/12/17 12:41:23;;;;;;;16.23;5.60;;;;;;;;;;5009244;28;20344;-69
2023/12/17 12:43:51;;;;;;;17.00;5.90;;;;;;;;;;5010948;28;20228;-69
2023/12/17 12:46:17;;;;;;;11.63;5.53;;;;;;;;;;5007470;28;20293;-71
2023/12/17 12:48:42;;;;;;;15.35;5.70;;;;;;;;;;5009289;28;20179;-71
2023/12/17 12:51:07;;;;;;;19.25;6.13;;;;;;;;;;5009515;28;20268;-71
2023/12/17 12:53:32;;;;;;;13.05;5.10;;;;;;;;;;5009308;28;20562;-70
2023/12/17 12:55:58;;;;;;;13.60;5.35;;;;;;;;;;5012442;28;20220;-70
2023/12/17 12:58:23;;;;;;;14.95;5.75;;;;;;;;;;5007613;28;20178;-71
2023/12/17 13:00:49;;;;;;;7.15;3.92;;;;;;;;;;5008827;28;20195;-70
2023/12/17 13:03:15;;;;;;;7.65;4.80;;;;;;;;;;5009436;28;20206;-70
2023/12/17 13:05:40;;;;;;;12.50;4.95;;;;;;;;;;5016345;28;20292;-70
2023/12/17 13:08:06;;;;;;;17.38;6.15;;;;;;;;;;5011794;28;20193;-70
2023/12/17 13:10:32;;;;;;;9.10;4.30;;;;;;;;;;5009963;28;20175;-70
2023/12/17 13:12:57;;;;;;;16.77;4.72;;;;;;;;;;5007863;28;20553;-71
2023/12/17 13:15:22;;;;;;;12.82;5.40;;;;;;;;;;5010372;28;20228;-70
2023/12/17 13:17:47;;;;;;;12.77;4.93;;;;;;;;;;5008296;28;20187;-70
2023/12/17 13:20:13;;;;;;;12.68;4.72;;;;;;;;;;5009120;28;20201;-71
2023/12/17 13:22:38;;;;;;;13.27;5.28;;;;;;;;;;5010999;28;20238;-70
2023/12/17 13:25:03;;;;;;;8.65;4.68;;;;;;;;;;5009342;28;20574;-71
2023/12/17 13:27:29;;;;;;;13.48;5.80;;;;;;;;;;5008017;28;20630;-70
2023/12/17 13:29:54;;;;;;;17.55;5.13;;;;;;;;;;5013496;28;20670;-70
2023/12/17 13:32:19;;;;;;;10.85;4.88;;;;;;;;;;5009804;28;20259;-69
2023/12/17 13:34:44;;;;;;;11.35;4.30;;;;;;;;;;5009469;28;20227;-70
2023/12/17 13:37:10;;;;;;;16.10;4.63;;;;;;;;;;5017105;28;20530;-70
2023/12/17 13:39:38;;;;;;;12.60;4.60;;;;;;;;;;5026826;28;20780;-70
2023/12/17 13:42:04;;;;;;;9.43;3.55;;;;;;;;;;5024330;28;20210;-70
2023/12/17 13:44:30;;;;;;;11.40;4.25;;;;;;;;;;5023789;28;20240;-72
2023/12/17 13:46:55;;;;;;;11.10;3.50;;;;;;;;;;5026723;28;20233;-71
2023/12/17 13:49:21;;;;;;;10.15;3.60;;;;;;;;;;5028168;28;20717;-71
2023/12/17 13:51:46;;;;;;;14.32;4.90;;;;;;;;;;5026490;28;20175;-70
2023/12/17 13:54:11;;;;;;;7.45;3.25;;;;;;;;;;5026517;28;20190;-70
2023/12/17 13:56:37;;;;;;;12.70;4.00;;;;;;;;;;5027321;28;20574;-70
2023/12/17 13:59:02;;;;;;;12.27;3.92;;;;;;;;;;5022463;28;20209;-70
2023/12/17 14:01:29;;;;;;;8.38;3.35;;;;;;;;;;5023159;28;20202;-70
2023/12/17 14:03:54;;;;;;;8.35;3.25;;;;;;;;;;5027906;28;20174;-71
2023/12/17 14:06:19;;;;;;;11.70;3.80;;;;;;;;;;5025647;28;20191;-69
2023/12/17 14:08:47;;;;;;;9.15;3.80;;;;;;;;;;5028515;28;20243;-70
2023/12/17 14:11:12;;;;;;;12.77;3.30;;;;;;;;;;5023715;28;20658;-70
2023/12/17 14:13:38;;;;;;;13.50;3.70;;;;;;;;;;5026686;28;20196;-69
2023/12/17 14:16:03;;;;;;;7.47;3.60;;;;;;;;;;5027109;28;20729;-69
2023/12/17 14:18:28;;;;;;;12.25;4.70;;;;;;;;;;5026102;28;20688;-69